createdAt,value
2023-04-08T00:01:21.480Z,91.40
2023-04-08T00:03:49.780Z,91.30
2023-04-08T00:06:19.835Z,91.40
2023-04-08T00:08:48.142Z,91.40
2023-04-08T00:11:16.505Z,91.40
2023-04-08T00:13:44.763Z,91.50
2023-04-08T00:16:12.954Z,91.50
2023-04-08T00:18:41.391Z,91.50
2023-04-08T00:21:09.610Z,91.60
2023-04-08T00:23:39.385Z,91.60
2023-04-08T00:26:07.628Z,91.70
2023-04-08T00:28:36.396Z,91.70
2023-04-08T00:31:04.641Z,91.70
2023-04-08T00:33:33.745Z,91.80
2023-04-08T00:36:02.014Z,91.80
2023-04-08T00:38:30.883Z,91.80
2023-04-08T00:41:00.509Z,91.80
2023-04-08T00:43:28.704Z,91.80
2023-04-08T00:45:56.999Z,91.90
2023-04-08T00:48:25.310Z,91.80
2023-04-08T00:50:53.870Z,91.90
2023-04-08T00:53:22.977Z,92.00
2023-04-08T00:55:52.436Z,91.90
2023-04-08T00:58:22.009Z,92.00
2023-04-08T01:00:57.520Z,91.90
2023-04-08T01:03:37.851Z,92.00
2023-04-08T01:06:14.910Z,91.90
2023-04-08T01:08:44.830Z,92.00
2023-04-08T01:11:15.091Z,92.00
2023-04-08T01:13:46.921Z,92.00
2023-04-08T01:16:17.979Z,92.00
2023-04-08T01:18:47.939Z,92.00
2023-04-08T01:21:17.811Z,91.90
2023-04-08T01:24:02.217Z,91.90
2023-04-08T01:26:32.831Z,92.00
2023-04-08T01:29:04.111Z,92.10
2023-04-08T01:31:33.725Z,92.20
2023-04-08T01:34:04.706Z,92.20
2023-04-08T01:36:35.672Z,92.20
2023-04-08T01:39:05.650Z,92.10
2023-04-08T01:41:37.400Z,92.10
2023-04-08T01:44:06.993Z,92.10
2023-04-08T01:46:36.202Z,92.20
2023-04-08T01:49:05.284Z,92.30
2023-04-08T01:51:34.362Z,92.30
2023-04-08T01:54:02.605Z,92.20
2023-04-08T01:56:37.332Z,92.30
2023-04-08T01:59:09.952Z,92.30
2023-04-08T02:01:39.167Z,92.30
2023-04-08T02:04:07.855Z,92.30
2023-04-08T02:06:36.883Z,92.30
2023-04-08T02:09:05.778Z,92.40
2023-04-08T02:11:35.548Z,92.30
2023-04-08T02:14:03.923Z,92.30
2023-04-08T02:16:40.408Z,92.40
2023-04-08T02:19:14.348Z,92.40
2023-04-08T02:21:50.270Z,92.30
2023-04-08T02:24:22.374Z,92.30
2023-04-08T02:26:54.683Z,92.40
2023-04-08T02:29:23.709Z,92.30
2023-04-08T02:31:53.599Z,92.40
2023-04-08T02:34:23.541Z,92.50
2023-04-08T02:36:53.109Z,92.50
2023-04-08T02:39:21.477Z,92.50
2023-04-08T02:41:50.999Z,92.40
2023-04-08T02:44:19.304Z,92.50
2023-04-08T02:46:47.744Z,92.40
2023-04-08T02:49:15.944Z,92.40
2023-04-08T02:51:44.145Z,92.40
2023-04-08T02:54:12.364Z,92.40
2023-04-08T02:56:40.544Z,92.40
2023-04-08T02:59:10.132Z,92.50
2023-04-08T03:01:38.555Z,92.60
2023-04-08T03:04:07.065Z,92.60
2023-04-08T03:06:35.283Z,92.50
2023-04-08T03:09:03.561Z,92.50
2023-04-08T03:11:31.730Z,92.50
2023-04-08T03:14:00.305Z,92.60
2023-04-08T03:16:30.324Z,92.50
2023-04-08T03:18:58.590Z,92.60
2023-04-08T03:21:27.043Z,92.60
2023-04-08T03:23:55.281Z,92.60
2023-04-08T03:26:23.500Z,92.60
2023-04-08T03:28:51.829Z,92.60
2023-04-08T03:31:21.309Z,92.50
2023-04-08T03:33:51.160Z,92.50
2023-04-08T03:36:19.898Z,92.50
2023-04-08T03:38:48.336Z,92.50
2023-04-08T03:41:16.729Z,92.60
2023-04-08T03:43:45.813Z,92.60
2023-04-08T03:46:14.843Z,92.40
2023-04-08T03:48:43.124Z,92.40
2023-04-08T03:51:12.733Z,92.50
2023-04-08T03:53:40.918Z,92.60
2023-04-08T03:56:09.537Z,92.50
2023-04-08T03:58:37.829Z,92.60
2023-04-08T04:01:06.540Z,92.60
2023-04-08T04:03:34.861Z,92.60
2023-04-08T04:06:03.132Z,92.50
2023-04-08T04:08:32.748Z,92.60
2023-04-08T04:11:01.142Z,92.60
2023-04-08T04:13:29.353Z,92.60
2023-04-08T04:15:57.965Z,92.60
2023-04-08T04:18:26.396Z,92.60
2023-04-08T04:20:54.615Z,92.60
2023-04-08T04:23:24.497Z,92.60
2023-04-08T04:25:54.296Z,92.60
2023-04-08T04:28:23.154Z,92.70
2023-04-08T04:30:51.323Z,92.60
2023-04-08T04:33:19.567Z,92.50
2023-04-08T04:35:47.818Z,92.60
2023-04-08T04:38:16.231Z,92.60
2023-04-08T04:40:45.041Z,92.60
2023-04-08T04:43:14.705Z,92.60
2023-04-08T04:45:42.885Z,92.60
2023-04-08T04:48:11.173Z,92.60
2023-04-08T04:50:39.362Z,92.70
2023-04-08T04:53:07.581Z,92.80
2023-04-08T04:55:37.010Z,92.80
2023-04-08T04:58:06.759Z,92.70
2023-04-08T05:00:36.389Z,92.70
2023-04-08T05:03:04.755Z,92.70
2023-04-08T05:05:32.984Z,92.80
2023-04-08T05:08:01.432Z,92.90
2023-04-08T05:10:29.766Z,92.90
2023-04-08T05:12:57.982Z,92.90
2023-04-08T05:15:26.246Z,92.80
2023-04-08T05:17:55.914Z,92.90
2023-04-08T05:20:24.208Z,93.00
2023-04-08T05:22:52.394Z,93.00
2023-04-08T05:25:20.901Z,92.90
2023-04-08T05:27:49.153Z,92.90
2023-04-08T05:30:17.372Z,92.80
2023-04-08T05:32:45.794Z,92.80
2023-04-08T05:35:15.435Z,92.80
2023-04-08T05:37:43.651Z,92.80
2023-04-08T05:40:12.558Z,92.80
2023-04-08T05:42:42.404Z,92.70
2023-04-08T05:45:11.757Z,92.70
2023-04-08T05:47:40.030Z,92.60
2023-04-08T05:50:10.060Z,92.50
2023-04-08T05:52:43.685Z,92.50
2023-04-08T05:55:12.361Z,92.50
2023-04-08T05:57:41.166Z,92.50
2023-04-08T06:00:12.070Z,92.40
2023-04-08T06:02:40.551Z,92.50
2023-04-08T06:05:09.973Z,92.50
2023-04-08T06:07:39.503Z,92.50
2023-04-08T06:10:09.666Z,92.50
2023-04-08T06:12:38.736Z,92.50
2023-04-08T06:15:09.165Z,92.50
2023-04-08T06:17:38.670Z,92.50
2023-04-08T06:20:09.256Z,92.60
2023-04-08T06:22:38.893Z,92.50
2023-04-08T06:25:08.027Z,92.60
2023-04-08T06:27:36.346Z,92.60
2023-04-08T06:30:05.028Z,92.70
2023-04-08T06:32:33.594Z,92.60
2023-04-08T06:35:01.958Z,92.60
2023-04-08T06:37:30.206Z,92.60
2023-04-08T06:40:00.116Z,92.60
2023-04-08T06:42:28.768Z,92.50
2023-04-08T06:44:56.998Z,92.60
2023-04-08T06:47:25.451Z,92.50
2023-04-08T06:49:54.405Z,92.50
2023-04-08T06:52:22.939Z,92.30
2023-04-08T06:54:51.228Z,92.40
2023-04-08T06:57:20.796Z,92.40
2023-04-08T06:59:49.110Z,92.40
2023-04-08T07:02:17.624Z,92.50
2023-04-08T07:04:46.988Z,92.40
2023-04-08T07:07:15.372Z,92.40
2023-04-08T07:09:45.919Z,92.30
2023-04-08T07:12:14.341Z,92.40
2023-04-08T07:14:44.023Z,92.40
2023-04-08T07:17:12.365Z,92.40
2023-04-08T07:19:41.109Z,92.40
2023-04-08T07:22:09.352Z,92.30
2023-04-08T07:24:37.790Z,92.20
2023-04-08T07:27:06.310Z,92.20
2023-04-08T07:29:34.522Z,92.20
2023-04-08T07:32:04.057Z,92.20
2023-04-08T07:34:32.324Z,92.10
2023-04-08T07:37:00.590Z,92.10
2023-04-08T07:39:29.350Z,92.10
2023-04-08T07:41:59.861Z,91.90
2023-04-08T07:44:28.155Z,91.70
2023-04-08T07:46:56.330Z,91.60
2023-04-08T07:49:26.092Z,91.70
2023-04-08T07:51:54.366Z,91.70
2023-04-08T07:54:22.671Z,91.50
2023-04-08T07:56:50.944Z,91.40
2023-04-08T07:59:19.658Z,91.30
2023-04-08T08:01:47.952Z,91.40
2023-04-08T08:04:16.361Z,91.30
2023-04-08T08:06:46.017Z,91.30
2023-04-08T08:09:14.619Z,91.20
2023-04-08T08:11:42.866Z,90.70
2023-04-08T08:14:11.795Z,91.00
2023-04-08T08:16:40.442Z,90.70
2023-04-08T08:19:08.870Z,90.50
2023-04-08T08:21:39.393Z,90.40
2023-04-08T08:24:09.191Z,90.30
2023-04-08T08:26:37.871Z,90.20
2023-04-08T08:29:08.781Z,89.70
2023-04-08T08:31:37.823Z,89.70
2023-04-08T08:34:06.088Z,89.60
2023-04-08T08:36:34.978Z,89.70
2023-04-08T08:39:03.367Z,89.70
2023-04-08T08:41:36.612Z,89.50
2023-04-08T08:44:07.946Z,89.60
2023-04-08T08:46:36.311Z,89.50
2023-04-08T08:49:04.674Z,89.30
2023-04-08T08:51:33.851Z,89.00
2023-04-08T08:54:04.797Z,89.10
2023-04-08T08:56:35.868Z,89.00
2023-04-08T08:59:03.906Z,89.10
2023-04-08T09:01:37.553Z,89.30
2023-04-08T09:04:12.611Z,89.20
2023-04-08T09:06:41.551Z,88.90
2023-04-08T09:09:11.397Z,88.30
2023-04-08T09:11:43.137Z,88.40
2023-04-08T09:14:22.558Z,88.70
2023-04-08T09:16:51.700Z,89.30
2023-04-08T09:19:20.467Z,89.20
2023-04-08T09:22:06.984Z,88.50
2023-04-08T09:24:35.719Z,87.90
2023-04-08T09:27:05.756Z,88.20
2023-04-08T09:29:37.322Z,88.50
2023-04-08T09:32:07.525Z,88.60
2023-04-08T09:34:35.811Z,88.60
2023-04-08T09:37:04.048Z,88.50
2023-04-08T09:39:32.877Z,88.70
2023-04-08T09:42:05.596Z,88.60
2023-04-08T09:44:37.146Z,88.80
2023-04-08T09:47:14.064Z,89.00
2023-04-08T09:49:50.138Z,88.90
2023-04-08T09:52:26.300Z,89.30
2023-04-08T09:55:01.156Z,89.20
2023-04-08T09:57:41.678Z,89.20
2023-04-08T10:00:14.434Z,89.00
2023-04-08T10:02:51.136Z,88.90
2023-04-08T10:05:21.185Z,89.20
2023-04-08T10:07:51.865Z,88.80
2023-04-08T10:10:21.136Z,88.80
2023-04-08T10:12:51.331Z,89.10
2023-04-08T10:15:30.588Z,88.30
2023-04-08T10:18:34.400Z,88.20
2023-04-08T10:21:03.614Z,87.80
2023-04-08T10:23:59.343Z,87.80
2023-04-08T10:26:37.447Z,87.60
2023-04-08T10:29:35.137Z,87.30
2023-04-08T10:32:03.463Z,87.00
2023-04-08T10:34:31.710Z,86.90
2023-04-08T10:37:03.784Z,87.50
2023-04-08T10:39:33.066Z,87.50
2023-04-08T10:42:04.237Z,87.60
2023-04-08T10:44:32.566Z,86.90
2023-04-08T10:47:02.214Z,86.50
2023-04-08T10:49:35.655Z,86.70
2023-04-08T10:52:09.918Z,86.60
2023-04-08T10:54:40.605Z,86.80
2023-04-08T10:57:08.985Z,87.00
2023-04-08T10:59:37.528Z,86.20
2023-04-08T11:02:07.350Z,84.70
2023-04-08T11:04:35.747Z,85.30
2023-04-08T11:07:08.142Z,83.60
2023-04-08T11:09:36.566Z,82.90
2023-04-08T11:12:05.857Z,84.60
2023-04-08T11:14:34.311Z,82.70
2023-04-08T11:17:02.614Z,82.80
2023-04-08T11:19:32.446Z,80.10
2023-04-08T11:22:01.278Z,80.50
2023-04-08T11:24:29.793Z,80.10
2023-04-08T11:26:58.191Z,78.60
2023-04-08T11:29:26.475Z,76.20
2023-04-08T11:31:54.907Z,77.50
2023-04-08T11:34:26.673Z,75.30
2023-04-08T11:36:58.704Z,76.20
2023-04-08T11:39:27.284Z,75.80
2023-04-08T11:41:55.661Z,75.40
2023-04-08T11:44:33.090Z,78.10
2023-04-08T11:47:02.284Z,73.90
2023-04-08T11:49:45.706Z,76.00
2023-04-08T11:52:15.536Z,75.40
2023-04-08T11:54:44.611Z,76.50
2023-04-08T11:57:13.183Z,75.90
2023-04-08T11:59:41.602Z,76.20
2023-04-08T12:02:10.580Z,75.70
2023-04-08T12:04:39.388Z,74.30
2023-04-08T12:07:07.953Z,74.20
2023-04-08T12:09:37.565Z,73.80
2023-04-08T12:12:06.091Z,71.80
2023-04-08T12:14:34.397Z,72.00
2023-04-08T12:17:02.722Z,74.40
2023-04-08T12:19:32.314Z,73.50
2023-04-08T12:22:02.327Z,73.20
2023-04-08T12:24:30.773Z,74.40
2023-04-08T12:27:01.940Z,71.60
2023-04-08T12:29:30.186Z,71.70
2023-04-08T12:31:58.605Z,72.90
2023-04-08T12:34:26.986Z,72.50
2023-04-08T12:36:55.596Z,72.40
2023-04-08T12:39:24.009Z,72.80
2023-04-08T12:41:52.402Z,72.80
2023-04-08T12:44:22.263Z,72.60
2023-04-08T12:46:50.620Z,72.70
2023-04-08T12:49:18.894Z,72.20
2023-04-08T12:51:47.283Z,74.00
2023-04-08T12:54:15.549Z,71.80
2023-04-08T12:56:45.672Z,73.10
2023-04-08T12:59:14.029Z,73.00
2023-04-08T13:01:43.926Z,71.70
2023-04-08T13:04:12.366Z,70.70
2023-04-08T13:06:40.842Z,70.20
2023-04-08T13:09:09.156Z,68.90
2023-04-08T13:11:37.475Z,68.90
2023-04-08T13:14:05.752Z,68.80
2023-04-08T13:16:34.087Z,68.70
2023-04-08T13:19:03.734Z,68.80
2023-04-08T13:21:32.312Z,69.80
2023-04-08T13:24:00.568Z,69.00
2023-04-08T13:26:28.903Z,68.40
2023-04-08T13:28:58.432Z,69.40
2023-04-08T13:31:27.230Z,66.90
2023-04-08T13:33:57.831Z,67.40
2023-04-08T13:36:28.476Z,68.70
2023-04-08T13:38:56.967Z,67.40
2023-04-08T13:41:26.198Z,68.30
2023-04-08T13:43:54.417Z,67.10
2023-04-08T13:46:22.722Z,67.40
2023-04-08T13:48:51.339Z,68.80
2023-04-08T13:51:19.840Z,68.20
2023-04-08T13:53:49.460Z,68.10
2023-04-08T13:56:17.701Z,68.10
2023-04-08T13:58:52.292Z,66.90
2023-04-08T14:01:24.966Z,69.10
2023-04-08T14:03:53.314Z,68.80
2023-04-08T14:06:21.550Z,68.30
2023-04-08T14:08:51.483Z,67.70
2023-04-08T14:11:20.007Z,68.90
2023-04-08T14:13:48.302Z,68.50
2023-04-08T14:16:16.778Z,66.30
2023-04-08T14:18:45.095Z,68.30
2023-04-08T14:21:14.306Z,66.90
2023-04-08T14:23:42.791Z,66.30
2023-04-08T14:26:12.632Z,67.10
2023-04-08T14:28:41.043Z,65.50
2023-04-08T14:31:09.265Z,66.30
2023-04-08T14:33:39.124Z,66.50
2023-04-08T14:36:08.166Z,66.10
2023-04-08T14:38:36.694Z,67.40
2023-04-08T14:41:05.002Z,66.70
2023-04-08T14:43:34.690Z,67.30
2023-04-08T14:46:03.037Z,68.30
2023-04-08T14:48:31.429Z,66.70
2023-04-08T14:51:00.089Z,67.50
2023-04-08T14:53:28.425Z,68.80
2023-04-08T14:55:56.712Z,68.10
2023-04-08T14:58:25.184Z,67.90
2023-04-08T15:00:55.735Z,68.40
2023-04-08T15:03:24.213Z,66.50
2023-04-08T15:05:52.527Z,65.80
2023-04-08T15:08:20.789Z,66.10
2023-04-08T15:10:49.132Z,67.30
2023-04-08T15:13:17.348Z,67.40
2023-04-08T15:15:45.709Z,67.00
2023-04-08T15:18:15.561Z,67.50
2023-04-08T15:20:44.155Z,68.80
2023-04-08T15:23:12.354Z,68.20
2023-04-08T15:25:40.634Z,69.60
2023-04-08T15:28:09.341Z,69.40
2023-04-08T15:30:37.621Z,69.80
2023-04-08T15:33:06.362Z,68.90
2023-04-08T15:35:36.201Z,69.40
2023-04-08T15:38:04.512Z,69.00
2023-04-08T15:40:34.881Z,70.80
2023-04-08T15:43:04.112Z,70.60
2023-04-08T15:45:33.456Z,70.50
2023-04-08T15:48:01.755Z,70.40
2023-04-08T15:50:31.404Z,70.40
2023-04-08T15:53:01.108Z,70.10
2023-04-08T15:55:29.297Z,70.50
2023-04-08T15:57:58.225Z,70.50
2023-04-08T16:00:27.349Z,70.70
2023-04-08T16:02:55.716Z,71.40
2023-04-08T16:05:24.018Z,71.30
2023-04-08T16:07:52.553Z,71.60
2023-04-08T16:10:22.209Z,71.90
2023-04-08T16:12:51.521Z,71.90
2023-04-08T16:15:19.977Z,71.20
2023-04-08T16:17:52.681Z,70.60
2023-04-08T16:20:21.916Z,71.30
2023-04-08T16:22:51.194Z,72.00
2023-04-08T16:25:21.068Z,71.50
2023-04-08T16:27:49.422Z,72.30
2023-04-08T16:30:17.677Z,72.40
2023-04-08T16:32:46.130Z,72.70
2023-04-08T16:35:14.597Z,72.80
2023-04-08T16:37:42.863Z,72.80
2023-04-08T16:40:12.524Z,73.00
2023-04-08T16:42:42.538Z,73.90
2023-04-08T16:45:12.102Z,74.10
2023-04-08T16:47:41.746Z,73.80
2023-04-08T16:50:11.012Z,74.10
2023-04-08T16:52:39.290Z,73.80
2023-04-08T16:55:09.219Z,73.80
2023-04-08T16:57:37.426Z,73.80
2023-04-08T17:00:09.119Z,74.00
2023-04-08T17:02:37.599Z,74.10
2023-04-08T17:05:06.806Z,74.10
2023-04-08T17:07:35.146Z,74.30
2023-04-08T17:10:03.536Z,74.10
2023-04-08T17:12:32.490Z,74.00
2023-04-08T17:15:01.027Z,75.20
2023-04-08T17:17:30.968Z,74.90
2023-04-08T17:19:59.644Z,75.00
2023-04-08T17:22:28.038Z,74.70
2023-04-08T17:24:56.386Z,75.50
2023-04-08T17:27:24.856Z,74.90
2023-04-08T17:29:57.680Z,75.10
2023-04-08T17:32:26.221Z,75.70
2023-04-08T17:34:56.328Z,75.20
2023-04-08T17:37:24.600Z,75.50
2023-04-08T17:39:52.877Z,75.80
2023-04-08T17:42:22.822Z,75.50
2023-04-08T17:44:51.131Z,75.80
2023-04-08T17:47:21.082Z,75.70
2023-04-08T17:49:49.434Z,76.20
2023-04-08T17:52:19.021Z,75.90
2023-04-08T17:54:47.247Z,76.20
2023-04-08T17:57:15.494Z,76.00
2023-04-08T17:59:43.725Z,75.90
2023-04-08T18:02:13.514Z,76.00
2023-04-08T18:04:42.432Z,76.10
2023-04-08T18:07:10.758Z,76.60
2023-04-08T18:09:40.897Z,76.50
2023-04-08T18:12:09.137Z,76.50
2023-04-08T18:14:37.385Z,76.20
2023-04-08T18:17:05.978Z,75.90
2023-04-08T18:19:34.353Z,76.90
2023-04-08T18:22:02.657Z,76.80
2023-04-08T18:24:31.125Z,76.50
2023-04-08T18:27:04.290Z,76.30
2023-04-08T18:29:33.208Z,76.30
2023-04-08T18:32:01.615Z,77.10
2023-04-08T18:34:31.948Z,76.70
2023-04-08T18:37:00.913Z,77.40
2023-04-08T18:39:29.224Z,77.00
2023-04-08T18:41:57.593Z,77.20
2023-04-08T18:44:27.225Z,76.90
2023-04-08T18:46:57.481Z,77.50
2023-04-08T18:49:25.977Z,77.60
2023-04-08T18:52:02.560Z,76.90
2023-04-08T18:54:31.940Z,77.20
2023-04-08T18:57:00.456Z,77.30
2023-04-08T18:59:30.217Z,77.50
2023-04-08T19:01:58.838Z,77.80
2023-04-08T19:04:27.464Z,77.90
2023-04-08T19:06:56.385Z,77.90
2023-04-08T19:09:24.661Z,77.40
2023-04-08T19:11:52.907Z,77.50
2023-04-08T19:14:21.194Z,77.60
2023-04-08T19:16:50.949Z,77.90
2023-04-08T19:19:19.358Z,77.90
2023-04-08T19:21:48.810Z,78.10
2023-04-08T19:24:17.124Z,78.30
2023-04-08T19:26:45.795Z,78.50
2023-04-08T19:29:14.050Z,78.20
2023-04-08T19:31:42.420Z,78.40
2023-04-08T19:34:12.166Z,78.30
2023-04-08T19:36:40.503Z,78.40
2023-04-08T19:39:08.745Z,78.40
2023-04-08T19:41:37.003Z,78.30
2023-04-08T19:44:05.537Z,78.20
2023-04-08T19:46:34.067Z,78.40
2023-04-08T19:49:02.471Z,78.20
2023-04-08T19:51:32.814Z,78.20
2023-04-08T19:54:01.080Z,78.40
2023-04-08T19:56:32.541Z,78.50
2023-04-08T19:59:02.123Z,78.30
2023-04-08T20:01:30.860Z,78.40
2023-04-08T20:03:59.213Z,78.60
2023-04-08T20:06:28.429Z,78.60
2023-04-08T20:09:05.144Z,78.30
2023-04-08T20:11:33.513Z,78.70
2023-04-08T20:14:02.027Z,78.70
2023-04-08T20:16:30.429Z,78.80
2023-04-08T20:18:58.666Z,79.30
2023-04-08T20:21:26.950Z,79.00
2023-04-08T20:23:55.634Z,78.60
2023-04-08T20:26:25.277Z,78.70
2023-04-08T20:28:56.304Z,78.90
2023-04-08T20:31:26.775Z,78.80
2023-04-08T20:33:55.516Z,79.00
2023-04-08T20:36:24.773Z,79.10
2023-04-08T20:38:53.461Z,78.90
2023-04-08T20:41:25.922Z,79.30
2023-04-08T20:43:55.411Z,79.20
2023-04-08T20:46:24.542Z,79.30
2023-04-08T20:48:53.647Z,79.20
2023-04-08T20:51:22.101Z,79.50
2023-04-08T20:53:50.817Z,79.20
2023-04-08T20:56:19.074Z,79.20
2023-04-08T20:58:48.720Z,79.50
2023-04-08T21:01:17.044Z,79.30
2023-04-08T21:03:45.416Z,79.40
2023-04-08T21:06:18.261Z,79.70
2023-04-08T21:08:46.822Z,79.50
2023-04-08T21:11:16.839Z,79.50
2023-04-08T21:13:47.391Z,79.80
2023-04-08T21:16:18.822Z,79.80
2023-04-08T21:18:47.106Z,79.90
2023-04-08T21:21:15.464Z,80.30
2023-04-08T21:23:43.731Z,80.10
2023-04-08T21:26:13.373Z,80.30
2023-04-08T21:28:41.812Z,80.40
2023-04-08T21:31:10.768Z,80.50
2023-04-08T21:33:41.003Z,80.70
2023-04-08T21:36:09.314Z,80.30
2023-04-08T21:38:37.615Z,80.50
2023-04-08T21:41:06.042Z,80.40
2023-04-08T21:43:34.241Z,80.50
2023-04-08T21:46:02.491Z,80.60
2023-04-08T21:48:30.756Z,80.50
2023-04-08T21:51:00.998Z,80.70
2023-04-08T21:53:29.248Z,80.50
2023-04-08T21:55:57.556Z,80.70
2023-04-08T21:58:26.280Z,80.80
2023-04-08T22:00:54.530Z,80.90
2023-04-08T22:03:22.910Z,80.90
2023-04-08T22:05:51.495Z,80.90
2023-04-08T22:08:21.152Z,81.00
2023-04-08T22:10:49.447Z,81.30
2023-04-08T22:13:18.849Z,81.40
2023-04-08T22:15:47.122Z,81.40
2023-04-08T22:18:15.565Z,81.30
2023-04-08T22:20:43.934Z,81.30
2023-04-08T22:23:12.238Z,81.20
2023-04-08T22:25:41.788Z,81.40
2023-04-08T22:28:10.027Z,81.30
2023-04-08T22:30:38.706Z,81.40
2023-04-08T22:33:06.966Z,81.50
2023-04-08T22:35:36.254Z,81.40
2023-04-08T22:38:04.712Z,81.40
2023-04-08T22:40:33.010Z,81.70
2023-04-08T22:43:02.605Z,81.30
2023-04-08T22:45:30.853Z,81.60
2023-04-08T22:47:59.760Z,81.60
2023-04-08T22:50:28.013Z,81.60
2023-04-08T22:52:56.269Z,81.50
2023-04-08T22:55:24.489Z,81.70
2023-04-08T22:57:52.748Z,81.70
2023-04-08T23:00:22.743Z,81.60
2023-04-08T23:02:51.132Z,81.90
2023-04-08T23:05:20.123Z,81.90
2023-04-08T23:07:48.351Z,81.70
2023-04-08T23:10:16.673Z,81.70
2023-04-08T23:12:44.871Z,81.90
2023-04-08T23:15:13.398Z,82.00
2023-04-08T23:17:43.053Z,82.10
2023-04-08T23:20:12.457Z,82.20
2023-04-08T23:22:40.743Z,81.90
2023-04-08T23:25:10.942Z,82.00
2023-04-08T23:27:39.155Z,82.30
2023-04-08T23:30:09.240Z,82.30
2023-04-08T23:32:37.530Z,82.40
2023-04-08T23:35:10.035Z,82.80
2023-04-08T23:37:38.284Z,82.30
2023-04-08T23:40:08.824Z,82.30
2023-04-08T23:42:37.045Z,82.20
2023-04-08T23:45:06.750Z,82.30
2023-04-08T23:47:34.983Z,82.20
2023-04-08T23:50:03.308Z,82.30
2023-04-08T23:52:32.922Z,82.20
2023-04-08T23:55:01.382Z,82.50
2023-04-08T23:57:29.633Z,82.40
2023-04-08T23:59:58.827Z,82.30
